Home PIREPS Pireps

Flight BEL372

  • Submitted By: Alain Herve Tchouameni
  • Departure Airport: Douala (FKKD)
  • Arrival Airport: Bruxelles National (EBBR)
  • Aircraft: A330-223 (OO-SFU)
  • Flight Time: 03.45
  • Date Submitted: 27/11/2017
  • Status: Accepted
Flight Details
Gross Revenue:
(229 load / € 708.00 per unit
€ 162,132.00
Fuel Cost:
(16777 fuel used @ 5.1 / unit)
€ 85,562.70

Additional Log Information:

View Log

Aircraft Used in flight is Boeing 737-7BDNGX Camair-Co Winglets
20:03 Brakes are On
20:03 Brakes are Released
20:11 Brakes are On
20:11 Brakes are Released
20:12 You Took off @ 166 Knots and Flaps at Position 3
Departure Weather
FKKD 261900Z 00000KT 9999 SCT016 FEW020CB 26/25 Q1011 NOSIGrn
20:12 Landing Gear Up @ 175 Knots and 50 Feet
20:13 Stalling
20:13 Recovered from Stall
20:13 Stalling
20:13 Recovered from Stall
20:13 Stalling
20:13 Recovered from Stall
20:13 Below 10000 feet you are not allowed to go over 250 knots
20:14 Stalling
20:14 Recovered from Stall
20:14 Stalling
20:14 Recovered from Stall
20:14 Stalling
20:14 Recovered from Stall
20:16 Above FL100 you need to switch of the landing lights
20:16 Above FL100 you need to switch of the landing lights
03:08 Landing Gear Down @ 169 Knots and 2960 Feet
03:21 Paused
03:21 Unpaused
03:21 Landing Gear Up @ 137 Knots and 630 Feet
03:21 Paused
03:24 Unpaused
03:31 Landing Gear Down @ 170 Knots and 1960 Feet
03:44 Paused
03:44 Unpaused
03:45 You Landed @ 129 Knots and with -1250 Vertical Speed
Arrival Weather
EBBR 270220Z 21009KT CAVOK 03/01 Q1022 NOSIGrn
03:45 Your Landing was very hard
03:45 Paused
03:45 Unpaused
03:45 You Crashed

Route Map

Corporate About Us Our Team Vacancies Information Fleet Route Network Rules and Regulations Operations Flight Schedules Event Center Tours Partners IVAO Vatsim Acars dev FSCB

fb Users Online No pilots online!
0 Pilot(s) and 167 Guest(s) Online
CMS by phpVMS - Design by Crazycreatives.com - Copyright © 2018 - Brussels Airlines Virtual